Time;durP1;ratioP1;P1;durP2;ratioP2;P2;SDS_P1;SDS_P2;PMS_P1;PMS_P2;Temp;Humidity;BMP_temperature;BMP_pressure;BME280_temperature;BME280_humidity;BME280_pressure;Samples;Min_cycle;Max_cycle;Signal;HPM_P1;HPM_P2
2021/11/14 00:00:03;;;;;;;24.85;5.18;;;12.50;68.40;;;;;;5057820;28;20033;-54
2021/11/14 00:02:29;;;;;;;28.58;5.35;;;12.50;68.40;;;;;;5057491;28;20065;-52
2021/11/14 00:04:55;;;;;;;29.45;5.40;;;12.50;68.50;;;;;;5057775;28;20523;-54
2021/11/14 00:07:21;;;;;;;21.38;5.70;;;12.50;68.50;;;;;;5057621;28;20037;-54
2021/11/14 00:09:47;;;;;;;22.55;5.15;;;12.50;68.50;;;;;;5057701;28;20040;-54
2021/11/14 00:12:13;;;;;;;24.00;6.60;;;12.50;68.50;;;;;;5057649;28;20029;-54
2021/11/14 00:14:39;;;;;;;22.05;6.15;;;12.50;68.70;;;;;;5057359;28;20036;-55
2021/11/14 00:17:05;;;;;;;24.98;6.68;;;12.50;68.60;;;;;;5057709;28;20540;-55
2021/11/14 00:19:31;;;;;;;24.80;6.70;;;12.50;68.50;;;;;;5057020;28;20483;-53
2021/11/14 00:21:57;;;;;;;36.25;9.18;;;12.50;68.70;;;;;;5057303;28;20028;-54
2021/11/14 00:24:23;;;;;;;27.08;6.60;;;12.50;68.70;;;;;;5057636;28;20032;-53
2021/11/14 00:26:49;;;;;;;24.98;6.50;;;12.50;68.50;;;;;;5057329;28;20037;-55
2021/11/14 00:29:15;;;;;;;23.13;5.60;;;12.50;68.40;;;;;;5057572;28;20028;-50
2021/11/14 00:31:41;;;;;;;21.30;5.72;;;12.50;68.40;;;;;;5057499;28;20028;-53
2021/11/14 00:34:07;;;;;;;28.00;5.13;;;12.50;68.50;;;;;;5057120;28;20488;-54
2021/11/14 00:36:40;;;;;;;27.45;6.63;;;12.50;68.50;;;;;;5057132;28;20150;-54
2021/11/14 00:39:09;;;;;;;20.60;5.13;;;12.50;68.70;;;;;;5057649;28;20036;-54
2021/11/14 00:41:35;;;;;;;21.98;4.80;;;12.50;68.60;;;;;;5057132;28;20021;-54
2021/11/14 00:44:02;;;;;;;27.88;6.18;;;12.50;68.70;;;;;;5057611;28;20025;-54
2021/11/14 00:46:27;;;;;;;21.38;6.70;;;12.50;68.70;;;;;;5057151;28;20396;-54
2021/11/14 00:48:53;;;;;;;34.55;10.35;;;12.50;68.70;;;;;;5057456;28;20029;-51
2021/11/14 00:51:28;;;;;;;26.13;7.65;;;12.50;68.70;;;;;;5057306;28;20025;-55
2021/11/14 00:53:59;;;;;;;20.25;6.72;;;12.50;68.70;;;;;;5056886;28;20064;-54
2021/11/14 00:56:25;;;;;;;26.58;6.78;;;12.50;68.70;;;;;;5057030;28;20073;-54
2021/11/14 00:58:51;;;;;;;24.05;6.32;;;12.50;68.70;;;;;;5057423;28;20052;-53
2021/11/14 01:01:18;;;;;;;23.23;5.97;;;12.50;68.70;;;;;;5056512;28;20022;-55
2021/11/14 01:03:44;;;;;;;23.27;4.78;;;12.50;68.70;;;;;;5056987;28;20052;-55
2021/11/14 01:06:10;;;;;;;24.85;5.28;;;12.50;68.70;;;;;;5057256;28;20025;-54
2021/11/14 01:08:36;;;;;;;24.25;5.32;;;12.40;68.60;;;;;;5056734;28;20060;-54
2021/11/14 01:11:04;;;;;;;24.50;5.43;;;12.40;68.60;;;;;;5056879;28;20025;-55
2021/11/14 01:13:34;;;;;;;21.50;4.70;;;12.40;68.60;;;;;;5056706;28;20377;-54
2021/11/14 01:16:01;;;;;;;20.33;4.95;;;12.40;68.60;;;;;;5056785;28;20067;-54
2021/11/14 01:18:27;;;;;;;36.22;5.38;;;12.30;68.60;;;;;;5056856;28;20449;-52
2021/11/14 01:20:58;;;;;;;19.85;5.10;;;12.30;68.60;;;;;;5056610;28;20017;-54
2021/11/14 01:23:25;;;;;;;22.88;4.60;;;12.20;69.20;;;;;;5056876;28;20029;-56
2021/11/14 01:25:52;;;;;;;18.98;4.03;;;12.20;68.80;;;;;;5056821;28;20049;-53
2021/11/14 01:28:19;;;;;;;21.05;5.13;;;12.20;69.00;;;;;;5056972;28;20037;-55
2021/11/14 01:30:49;;;;;;;24.60;3.90;;;12.20;69.00;;;;;;5057094;28;20053;-54
2021/11/14 01:33:16;;;;;;;20.48;5.35;;;12.10;68.90;;;;;;5058392;28;20025;-54
2021/11/14 01:35:43;;;;;;;19.73;4.18;;;12.10;68.90;;;;;;5060502;28;20028;-52
2021/11/14 01:38:09;;;;;;;23.35;4.95;;;12.00;68.90;;;;;;5060344;28;20024;-55
2021/11/14 01:40:45;;;;;;;16.98;4.32;;;12.00;69.00;;;;;;5060410;28;20017;-55
2021/11/14 01:43:14;;;;;;;16.52;3.92;;;12.00;69.00;;;;;;5060310;28;20079;-51
2021/11/14 01:45:41;;;;;;;20.52;4.57;;;11.90;68.90;;;;;;5060149;28;20484;-53
2021/11/14 01:48:08;;;;;;;21.23;4.78;;;11.80;68.80;;;;;;5060339;28;20033;-54
2021/11/14 01:50:34;;;;;;;21.13;5.10;;;11.80;68.90;;;;;;5059872;28;20029;-55
2021/11/14 01:53:01;;;;;;;19.25;4.07;;;11.60;68.90;;;;;;5058968;28;20029;-53
2021/11/14 01:55:31;;;;;;;19.52;4.45;;;11.60;69.10;;;;;;5059988;28;20021;-54
2021/11/14 01:57:58;;;;;;;21.08;4.20;;;11.60;69.10;;;;;;5059672;28;20033;-53
2021/11/14 02:00:30;;;;;;;19.35;4.28;;;11.50;69.40;;;;;;5059667;28;20385;-54
2021/11/14 02:02:57;;;;;;;24.55;5.15;;;11.60;69.40;;;;;;5059907;28;20108;-54
2021/11/14 02:05:25;;;;;;;20.85;4.43;;;11.60;69.40;;;;;;5059748;28;20476;-52
2021/11/14 02:07:52;;;;;;;30.52;4.90;;;11.60;69.80;;;;;;5059850;28;20461;-55
2021/11/14 02:10:20;;;;;;;17.73;3.80;;;11.60;69.40;;;;;;5059960;28;20025;-53
2021/11/14 02:12:46;;;;;;;19.70;4.45;;;11.70;69.70;;;;;;5059762;28;20039;-54
2021/11/14 02:15:13;;;;;;;21.23;4.13;;;11.70;69.30;;;;;;5059677;28;20029;-51
2021/11/14 02:17:39;;;;;;;30.17;5.47;;;11.70;69.30;;;;;;5059757;28;20017;-54
2021/11/14 02:20:07;;;;;;;30.23;4.53;;;11.70;69.30;;;;;;5059765;28;20024;-54
2021/11/14 02:22:33;;;;;;;17.83;3.85;;;11.80;69.40;;;;;;5059164;28;20021;-54
2021/11/14 02:24:59;;;;;;;17.63;4.95;;;11.70;69.40;;;;;;5059028;28;20033;-53
2021/11/14 02:27:25;;;;;;;19.75;4.65;;;11.80;69.40;;;;;;5059457;28;20414;-54
2021/11/14 02:29:51;;;;;;;22.02;5.03;;;11.70;69.20;;;;;;5059409;28;20033;-54
2021/11/14 02:32:17;;;;;;;16.52;4.32;;;11.70;69.50;;;;;;5059093;28;20029;-53
2021/11/14 02:34:43;;;;;;;19.65;4.30;;;11.70;69.40;;;;;;5059157;28;20029;-53
2021/11/14 02:37:09;;;;;;;19.98;3.97;;;11.70;69.40;;;;;;5059248;28;20033;-51
2021/11/14 02:39:36;;;;;;;25.40;4.70;;;11.70;69.60;;;;;;5059662;28;20033;-54
2021/11/14 02:42:03;;;;;;;19.40;3.78;;;11.70;69.80;;;;;;5058919;28;20542;-55
2021/11/14 02:44:28;;;;;;;22.40;4.15;;;11.80;70.00;;;;;;5058621;28;20025;-54
2021/11/14 02:46:55;;;;;;;22.77;4.43;;;11.80;69.70;;;;;;5058851;28;20032;-54
2021/11/14 02:49:20;;;;;;;21.92;4.72;;;11.80;69.60;;;;;;5059181;28;20468;-53
2021/11/14 02:51:46;;;;;;;28.17;4.35;;;11.80;69.90;;;;;;5059081;28;20358;-53
2021/11/14 02:54:12;;;;;;;19.88;4.43;;;11.90;69.90;;;;;;5059175;28;20025;-52
2021/11/14 02:56:38;;;;;;;20.77;4.63;;;11.90;69.90;;;;;;5058751;28;20484;-55
2021/11/14 02:59:06;;;;;;;17.90;3.55;;;11.90;69.60;;;;;;5058778;28;20024;-55
2021/11/14 03:01:40;;;;;;;19.27;4.40;;;12.00;69.80;;;;;;5058988;28;20017;-54
2021/11/14 03:04:12;;;;;;;26.35;5.15;;;12.00;69.60;;;;;;5058556;28;20029;-54
2021/11/14 03:06:38;;;;;;;25.00;4.72;;;12.00;69.70;;;;;;5058866;28;20052;-54
2021/11/14 03:09:04;;;;;;;21.83;4.22;;;12.00;69.80;;;;;;5058526;28;20060;-54
2021/11/14 03:11:30;;;;;;;24.85;4.55;;;12.00;69.70;;;;;;5058745;28;20025;-51
2021/11/14 03:13:55;;;;;;;19.98;3.50;;;12.00;69.80;;;;;;5058759;28;20039;-53
2021/11/14 03:16:27;;;;;;;24.63;4.70;;;12.00;69.70;;;;;;5058307;28;20109;-53
2021/11/14 03:18:54;;;;;;;15.82;3.85;;;12.00;69.70;;;;;;5058467;28;20021;-52
2021/11/14 03:21:21;;;;;;;22.35;4.22;;;12.10;69.50;;;;;;5058367;28;20500;-54
2021/11/14 03:23:47;;;;;;;19.17;4.68;;;12.10;69.50;;;;;;5056928;28;20111;-51
2021/11/14 03:26:13;;;;;;;14.88;3.33;;;12.00;69.60;;;;;;5058347;28;20100;-54
2021/11/14 03:28:41;;;;;;;29.45;5.03;;;12.10;69.50;;;;;;5058487;28;20041;-54
2021/11/14 03:31:07;;;;;;;19.90;3.88;;;12.00;69.90;;;;;;5056980;28;20025;-55
2021/11/14 03:33:33;;;;;;;22.15;4.70;;;12.00;69.60;;;;;;5058217;28;20108;-52
2021/11/14 03:36:04;;;;;;;20.63;4.07;;;12.00;69.80;;;;;;5057039;28;20040;-51
2021/11/14 03:38:33;;;;;;;21.63;3.50;;;12.00;69.60;;;;;;5058109;28;20029;-54
2021/11/14 03:41:00;;;;;;;18.55;3.88;;;12.00;69.70;;;;;;5056720;28;20124;-53
2021/11/14 03:43:27;;;;;;;18.80;3.80;;;12.00;69.90;;;;;;5058049;28;20021;-54
2021/11/14 03:45:53;;;;;;;19.95;3.78;;;12.00;70.00;;;;;;5058127;28;20028;-52
2021/11/14 03:48:19;;;;;;;15.63;4.30;;;12.00;70.10;;;;;;5057915;28;20025;-54
2021/11/14 03:50:45;;;;;;;23.98;4.10;;;12.00;69.90;;;;;;5057823;28;20025;-52
2021/11/14 03:53:11;;;;;;;24.42;3.85;;;12.00;69.90;;;;;;5057723;28;20032;-54
2021/11/14 03:55:38;;;;;;;19.48;3.30;;;12.00;69.70;;;;;;5057471;28;20029;-54
2021/11/14 03:58:05;;;;;;;15.48;3.38;;;11.90;69.90;;;;;;5057738;28;20025;-53
2021/11/14 04:00:35;;;;;;;22.58;3.60;;;12.00;69.90;;;;;;5057889;28;20028;-53
2021/11/14 04:03:02;;;;;;;18.10;3.83;;;11.90;70.00;;;;;;5056631;28;20032;-52
2021/11/14 04:05:29;;;;;;;19.90;3.90;;;11.90;70.40;;;;;;5057579;28;20159;-55
2021/11/14 04:07:59;;;;;;;22.58;3.40;;;11.90;70.50;;;;;;5055978;28;20057;-55
2021/11/14 04:10:26;;;;;;;22.38;4.57;;;11.90;70.20;;;;;;5055435;28;20025;-51
2021/11/14 04:12:52;;;;;;;15.70;3.20;;;11.90;70.00;;;;;;5056810;28;20568;-54
2021/11/14 04:15:18;;;;;;;13.57;3.20;;;11.90;70.00;;;;;;5056923;28;20053;-54
2021/11/14 04:17:45;;;;;;;18.25;3.88;;;11.90;70.10;;;;;;5057520;28;20380;-54
2021/11/14 04:20:12;;;;;;;16.70;3.70;;;11.90;70.00;;;;;;5057640;28;20021;-53
2021/11/14 04:22:39;;;;;;;23.38;4.45;;;11.90;70.20;;;;;;5057648;28;20048;-52
2021/11/14 04:25:08;;;;;;;19.63;3.30;;;11.90;70.20;;;;;;5057377;28;20029;-54
2021/11/14 04:27:34;;;;;;;16.02;4.00;;;11.90;70.30;;;;;;5057608;28;20082;-54
2021/11/14 04:30:00;;;;;;;16.98;3.78;;;11.90;70.20;;;;;;5055537;28;20032;-55
2021/11/14 04:32:26;;;;;;;14.02;4.03;;;11.90;70.50;;;;;;5055231;28;20036;-54
2021/11/14 04:34:52;;;;;;;14.93;2.95;;;11.90;70.20;;;;;;5055126;28;20037;-55
2021/11/14 04:37:18;;;;;;;10.40;3.30;;;11.90;70.30;;;;;;5053804;28;20546;-53
2021/11/14 04:39:43;;;;;;;17.17;3.15;;;11.90;70.30;;;;;;5055157;28;20028;-52
2021/11/14 04:42:09;;;;;;;20.52;3.00;;;11.90;70.30;;;;;;5053618;28;20040;-55
2021/11/14 04:44:36;;;;;;;13.35;3.20;;;12.00;70.30;;;;;;5056540;28;20021;-54
2021/11/14 04:47:02;;;;;;;19.17;3.22;;;12.00;70.40;;;;;;5057235;28;20112;-55
2021/11/14 04:49:28;;;;;;;23.65;3.95;;;12.00;70.20;;;;;;5057177;28;20023;-54
2021/11/14 04:51:54;;;;;;;20.05;4.30;;;12.00;70.20;;;;;;5057363;28;20532;-55
2021/11/14 04:54:21;;;;;;;20.33;4.07;;;12.00;70.10;;;;;;5057241;28;20029;-52
2021/11/14 04:56:48;;;;;;;15.30;2.90;;;12.00;70.30;;;;;;5056908;28;20029;-54
2021/11/14 04:59:14;;;;;;;17.17;3.65;;;12.00;70.20;;;;;;5057168;28;20049;-54
2021/11/14 05:01:40;;;;;;;17.60;3.40;;;12.00;71.00;;;;;;5056992;28;20025;-54
2021/11/14 05:04:06;;;;;;;13.88;3.10;;;12.00;70.20;;;;;;5057363;28;20072;-55
2021/11/14 05:06:32;;;;;;;12.98;3.97;;;12.00;70.40;;;;;;5058817;28;20029;-51
2021/11/14 05:08:59;;;;;;;20.58;4.65;;;12.00;70.50;;;;;;5061024;28;20413;-55
2021/11/14 05:11:25;;;;;;;15.10;3.00;;;11.90;70.50;;;;;;5061228;28;20112;-55
2021/11/14 05:13:51;;;;;;;12.43;2.80;;;12.00;70.40;;;;;;5060894;28;20021;-54
2021/11/14 05:16:18;;;;;;;15.90;3.25;;;12.00;70.40;;;;;;5061320;28;20536;-54
2021/11/14 05:18:43;;;;;;;13.80;2.88;;;12.00;70.40;;;;;;5061087;28;20093;-54
2021/11/14 05:21:10;;;;;;;19.13;3.70;;;12.00;70.50;;;;;;5060733;28;20495;-54
2021/11/14 05:23:37;;;;;;;12.60;3.15;;;12.00;71.10;;;;;;5060977;28;20491;-51
2021/11/14 05:26:03;;;;;;;16.90;3.28;;;12.00;70.30;;;;;;5060999;28;20032;-55
2021/11/14 05:28:29;;;;;;;13.82;3.17;;;12.00;70.20;;;;;;5060908;28;20025;-55
2021/11/14 05:30:55;;;;;;;24.73;3.38;;;12.00;70.40;;;;;;5061149;28;20128;-54
2021/11/14 05:33:21;;;;;;;13.48;3.05;;;12.10;70.20;;;;;;5060785;28;20052;-53
2021/11/14 05:35:47;;;;;;;11.05;3.13;;;12.00;70.20;;;;;;5060750;28;20033;-54
2021/11/14 05:38:14;;;;;;;15.10;2.85;;;12.00;70.40;;;;;;5060755;28;20021;-54
2021/11/14 05:40:41;;;;;;;15.52;3.60;;;12.00;70.70;;;;;;5060868;28;20032;-52
2021/11/14 05:43:07;;;;;;;11.63;2.60;;;12.00;70.70;;;;;;5060971;28;20013;-55
2021/11/14 05:45:33;;;;;;;19.42;2.92;;;12.00;70.80;;;;;;5060696;28;20162;-54
2021/11/14 05:47:59;;;;;;;11.07;2.47;;;12.00;71.00;;;;;;5060500;28;20036;-54
2021/11/14 05:50:25;;;;;;;12.27;2.72;;;12.00;70.80;;;;;;5060669;28;20029;-54
2021/11/14 05:52:51;;;;;;;12.68;3.13;;;12.00;70.70;;;;;;5060880;28;20547;-52
2021/11/14 05:55:17;;;;;;;15.38;3.22;;;12.00;70.70;;;;;;5060555;28;20083;-55
2021/11/14 06:00:20;;;;;;;14.38;3.35;;;12.00;70.60;;;;;;5060271;28;20021;-53
2021/11/14 06:02:58;;;;;;;11.82;2.90;;;12.10;70.50;;;;;;5060349;28;20101;-54
2021/11/14 06:05:25;;;;;;;19.27;3.65;;;12.10;70.50;;;;;;5060013;28;20408;-53
2021/11/14 06:07:51;;;;;;;19.10;3.55;;;12.10;70.90;;;;;;5059714;28;20560;-54
2021/11/14 06:10:17;;;;;;;15.57;3.25;;;12.00;70.80;;;;;;5060101;28;20469;-54
2021/11/14 06:12:45;;;;;;;19.17;3.90;;;12.10;70.80;;;;;;5060060;28;20029;-54
2021/11/14 06:15:14;;;;;;;14.85;3.35;;;12.10;70.40;;;;;;5059877;28;20552;-55
2021/11/14 06:17:40;;;;;;;13.18;3.15;;;12.10;70.70;;;;;;5058744;28;20135;-54
2021/11/14 06:20:07;;;;;;;17.10;3.88;;;12.10;70.60;;;;;;5060015;28;20060;-55
2021/11/14 06:22:33;;;;;;;15.52;3.15;;;12.10;70.80;;;;;;5059983;28;20492;-52
2021/11/14 06:24:59;;;;;;;14.50;3.10;;;12.10;70.70;;;;;;5059909;28;20040;-54
2021/11/14 06:27:24;;;;;;;12.00;2.95;;;12.10;70.60;;;;;;5059737;28;20021;-54
2021/11/14 06:29:50;;;;;;;15.65;3.22;;;12.10;70.60;;;;;;5060030;28;20495;-55
2021/11/14 06:32:16;;;;;;;12.90;3.05;;;12.10;70.40;;;;;;5059702;28;20031;-55
2021/11/14 06:34:42;;;;;;;10.75;3.00;;;12.10;70.50;;;;;;5059487;28;20108;-54
2021/11/14 06:37:08;;;;;;;16.95;3.55;;;12.10;70.60;;;;;;5059674;28;20056;-52
2021/11/14 06:39:36;;;;;;;15.15;3.35;;;12.10;70.40;;;;;;5059584;28;20017;-55
2021/11/14 06:42:02;;;;;;;13.57;3.42;;;12.10;70.60;;;;;;5059799;28;20023;-54
2021/11/14 06:44:28;;;;;;;15.77;2.88;;;12.10;70.70;;;;;;5059909;28;20461;-54
2021/11/14 06:46:55;;;;;;;17.38;3.38;;;12.10;70.80;;;;;;5059718;28;20024;-54
2021/11/14 06:49:21;;;;;;;10.40;3.42;;;12.10;70.70;;;;;;5059568;28;20033;-53
2021/11/14 06:51:47;;;;;;;14.98;3.17;;;12.10;71.00;;;;;;5059290;28;20508;-54
2021/11/14 06:54:13;;;;;;;13.55;3.30;;;12.10;70.80;;;;;;5059318;28;20025;-54
2021/11/14 06:56:39;;;;;;;16.30;4.15;;;12.10;70.70;;;;;;5059256;28;20020;-53
2021/11/14 06:59:05;;;;;;;13.88;4.13;;;12.10;70.90;;;;;;5059429;28;20044;-53
2021/11/14 07:01:31;;;;;;;14.23;2.83;;;12.10;70.80;;;;;;5059096;28;20017;-54
2021/11/14 07:03:57;;;;;;;13.40;2.92;;;12.10;71.00;;;;;;5059339;28;20047;-54
2021/11/14 07:06:22;;;;;;;12.98;4.15;;;12.10;71.20;;;;;;5059317;28;20021;-53
2021/11/14 07:08:48;;;;;;;15.10;3.63;;;12.00;71.10;;;;;;5058971;28;20098;-53
2021/11/14 07:11:17;;;;;;;10.57;3.17;;;12.10;71.00;;;;;;5058970;28;20028;-55
2021/11/14 07:13:43;;;;;;;18.77;3.83;;;12.10;70.80;;;;;;5058729;28;20029;-55
2021/11/14 07:16:09;;;;;;;17.73;3.72;;;12.10;70.80;;;;;;5058123;28;20021;-54
2021/11/14 07:18:35;;;;;;;14.32;3.42;;;12.10;70.70;;;;;;5058860;28;20080;-53
2021/11/14 07:21:00;;;;;;;11.35;3.60;;;12.10;70.80;;;;;;5058946;28;20043;-55
2021/11/14 07:23:26;;;;;;;11.52;3.60;;;12.00;71.00;;;;;;5058759;28;20029;-55
2021/11/14 07:25:52;;;;;;;11.27;4.00;;;12.00;71.10;;;;;;5058931;28;20032;-54
2021/11/14 07:28:18;;;;;;;13.18;4.32;;;12.00;71.00;;;;;;5068680;28;20028;-54
2021/11/14 07:30:45;;;;;;;15.02;4.10;;;12.00;71.30;;;;;;5069257;28;20408;-52
2021/11/14 07:33:11;;;;;;;13.18;3.80;;;12.00;71.00;;;;;;5067230;28;20396;-52
2021/11/14 07:35:37;;;;;;;11.50;3.45;;;12.00;71.10;;;;;;5069250;28;20021;-54
2021/11/14 07:38:03;;;;;;;11.50;3.95;;;12.00;71.40;;;;;;5066802;28;20033;-53
2021/11/14 07:40:30;;;;;;;12.73;3.22;;;12.00;71.30;;;;;;5069045;28;20373;-53
2021/11/14 07:42:56;;;;;;;10.43;3.10;;;12.00;71.10;;;;;;5067238;28;20131;-54
2021/11/14 07:45:24;;;;;;;11.75;3.55;;;12.00;71.10;;;;;;5067305;28;20024;-53
2021/11/14 07:47:51;;;;;;;11.45;3.70;;;12.10;71.10;;;;;;5059141;28;20025;-55
2021/11/14 07:50:19;;;;;;;12.23;3.47;;;12.10;71.00;;;;;;5065038;28;20385;-52
2021/11/14 07:52:46;;;;;;;12.75;3.53;;;12.10;71.40;;;;;;5065004;28;20071;-52
2021/11/14 07:55:13;;;;;;;11.73;3.60;;;12.10;71.20;;;;;;5065891;28;20052;-52
2021/11/14 07:57:43;;;;;;;8.45;3.53;;;12.10;71.10;;;;;;5067883;28;20029;-54
2021/11/14 08:00:14;;;;;;;15.38;4.07;;;12.20;71.10;;;;;;5067949;28;20049;-54
2021/11/14 08:02:41;;;;;;;15.18;3.60;;;12.20;70.90;;;;;;5068305;28;20025;-54
2021/11/14 08:05:08;;;;;;;14.10;4.53;;;12.20;71.20;;;;;;5067765;28;20017;-55
2021/11/14 08:07:34;;;;;;;12.38;3.53;;;12.20;71.10;;;;;;5066096;28;20128;-53
2021/11/14 08:10:00;;;;;;;13.35;3.85;;;12.30;71.30;;;;;;5067744;28;20024;-54
2021/11/14 08:12:25;;;;;;;12.77;4.03;;;12.30;71.20;;;;;;5067473;28;20020;-53
2021/11/14 08:14:51;;;;;;;11.65;4.18;;;12.30;71.40;;;;;;5065790;28;20055;-54
2021/11/14 08:17:17;;;;;;;12.55;3.95;;;12.30;71.30;;;;;;5067915;28;20029;-55
2021/11/14 08:19:44;;;;;;;13.95;4.00;;;12.30;71.30;;;;;;5066955;28;20017;-53
2021/11/14 08:22:10;;;;;;;9.85;3.75;;;12.40;71.30;;;;;;5077459;28;20028;-54
2021/11/14 08:24:35;;;;;;;14.48;4.45;;;12.40;71.20;;;;;;5077437;28;20066;-53
2021/11/14 08:27:01;;;;;;;20.25;5.93;;;12.40;71.40;;;;;;5074641;28;20051;-54
2021/11/14 08:29:27;;;;;;;21.02;6.75;;;12.40;71.30;;;;;;5057393;28;20028;-53
2021/11/14 08:31:53;;;;;;;22.50;9.20;;;12.40;71.40;;;;;;5057230;28;20025;-54
2021/11/14 08:34:20;;;;;;;30.23;12.90;;;12.50;71.20;;;;;;5057284;28;20031;-53
2021/11/14 08:36:46;;;;;;;31.33;14.73;;;12.50;71.10;;;;;;5057481;28;20029;-53
2021/11/14 08:39:12;;;;;;;31.80;14.43;;;12.50;71.30;;;;;;5057645;28;20377;-61
2021/11/14 08:41:38;;;;;;;26.83;12.45;;;12.50;71.30;;;;;;5055172;28;20025;-61
2021/11/14 08:44:05;;;;;;;26.10;11.88;;;12.60;71.30;;;;;;5055909;28;20080;-60
2021/11/14 08:46:32;;;;;;;24.13;10.77;;;12.60;71.50;;;;;;5057188;28;20040;-55
2021/11/14 08:48:59;;;;;;;24.02;9.68;;;12.60;71.40;;;;;;5057048;28;20086;-54
2021/11/14 08:51:25;;;;;;;23.55;8.00;;;12.60;71.30;;;;;;5056663;28;20029;-54
2021/11/14 08:53:58;;;;;;;22.00;8.15;;;12.70;71.30;;;;;;5054383;28;20021;-55
2021/11/14 08:56:26;;;;;;;17.90;7.10;;;12.70;71.30;;;;;;5056714;28;20447;-54
2021/11/14 08:58:51;;;;;;;18.42;6.90;;;12.80;71.60;;;;;;5054726;28;20020;-53
2021/11/14 09:01:17;;;;;;;25.98;7.55;;;12.80;71.20;;;;;;5054851;28;20025;-55
2021/11/14 09:03:43;;;;;;;19.95;6.63;;;12.90;71.10;;;;;;5054832;28;20022;-55
2021/11/14 09:06:09;;;;;;;18.75;6.32;;;12.90;71.10;;;;;;5055223;28;20380;-51
2021/11/14 09:08:35;;;;;;;16.67;5.53;;;13.00;71.10;;;;;;5055464;28;20597;-53
2021/11/14 09:11:01;;;;;;;21.83;5.63;;;13.00;71.10;;;;;;5055853;28;20029;-53
2021/11/14 09:13:27;;;;;;;14.05;5.60;;;13.00;71.00;;;;;;5056721;28;20049;-55
2021/11/14 09:15:53;;;;;;;19.38;5.90;;;13.10;71.10;;;;;;5056941;28;20025;-54
2021/11/14 09:18:19;;;;;;;15.10;5.38;;;13.20;71.10;;;;;;5056996;28;20362;-56
2021/11/14 09:20:46;;;;;;;12.43;4.40;;;13.40;71.10;;;;;;5057085;28;20096;-54
2021/11/14 09:23:13;;;;;;;18.52;5.35;;;13.40;70.70;;;;;;5056806;28;20081;-55
2021/11/14 09:25:40;;;;;;;15.30;4.80;;;13.50;70.60;;;;;;5057807;28;20045;-53
2021/11/14 09:28:07;;;;;;;10.60;4.22;;;13.50;70.50;;;;;;5056722;28;20389;-52
2021/11/14 09:30:33;;;;;;;13.18;4.40;;;13.50;70.50;;;;;;5056616;28;20029;-53
2021/11/14 09:32:59;;;;;;;11.68;4.07;;;13.50;70.40;;;;;;5056321;28;20032;-52
2021/11/14 09:35:24;;;;;;;13.10;4.13;;;13.40;70.90;;;;;;5056230;28;20075;-54
2021/11/14 09:37:50;;;;;;;12.35;3.75;;;13.40;70.50;;;;;;5056676;28;20021;-55
2021/11/14 09:40:16;;;;;;;15.50;4.38;;;13.40;70.60;;;;;;5056575;28;20070;-54
2021/11/14 09:42:42;;;;;;;19.70;4.88;;;13.40;70.70;;;;;;5056834;28;20056;-55
2021/11/14 09:45:09;;;;;;;14.40;5.00;;;13.40;70.70;;;;;;5056582;28;20021;-54
2021/11/14 09:47:38;;;;;;;14.80;4.63;;;13.50;70.80;;;;;;5056533;28;20029;-54
2021/11/14 09:50:07;;;;;;;11.45;4.32;;;13.60;70.80;;;;;;5055952;28;20075;-55
2021/11/14 09:52:32;;;;;;;16.45;4.75;;;13.60;70.60;;;;;;5056955;28;20086;-55
2021/11/14 09:55:02;;;;;;;9.98;4.30;;;13.60;70.40;;;;;;5060115;28;20032;-53
2021/11/14 09:57:28;;;;;;;12.50;4.22;;;13.60;70.50;;;;;;5059886;28;20025;-55
2021/11/14 09:59:55;;;;;;;12.25;4.60;;;13.50;70.40;;;;;;5060136;28;20024;-55
2021/11/14 10:02:21;;;;;;;12.88;4.93;;;13.50;70.50;;;;;;5059611;28;20025;-52
2021/11/14 10:04:47;;;;;;;10.95;4.03;;;13.50;70.50;;;;;;5059765;28;20032;-55
2021/11/14 10:07:16;;;;;;;16.60;5.30;;;13.60;70.60;;;;;;5059904;28;20025;-54
2021/11/14 10:09:47;;;;;;;15.00;4.90;;;13.60;70.50;;;;;;5059833;28;20017;-55
2021/11/14 10:12:35;;;;;;;11.70;5.07;;;13.60;70.50;;;;;;5060051;28;20017;-55
2021/11/14 10:15:08;;;;;;;12.75;5.03;;;13.70;70.50;;;;;;5059894;28;20033;-54
2021/11/14 10:17:34;;;;;;;13.02;4.78;;;13.70;70.60;;;;;;5059462;28;20045;-56
2021/11/14 10:20:12;;;;;;;14.77;5.47;;;13.70;70.50;;;;;;5058472;28;20097;-56
2021/11/14 10:22:42;;;;;;;12.75;5.10;;;13.70;70.50;;;;;;5059618;28;20055;-56
2021/11/14 10:25:09;;;;;;;12.90;5.20;;;13.70;70.30;;;;;;5059267;28;20029;-55
2021/11/14 10:27:36;;;;;;;11.65;4.45;;;13.80;70.30;;;;;;5059269;28;20431;-57
2021/11/14 10:30:08;;;;;;;13.40;5.60;;;13.80;70.50;;;;;;5059196;28;20398;-55
2021/11/14 10:32:34;;;;;;;12.10;4.97;;;13.80;70.30;;;;;;5059700;28;20032;-56
2021/11/14 10:35:02;;;;;;;17.50;5.35;;;13.80;70.20;;;;;;5059365;28;20473;-56
2021/11/14 10:37:55;;;;;;;14.57;4.97;;;13.80;70.30;;;;;;5059299;28;20053;-55
2021/11/14 10:40:24;;;;;;;15.60;5.55;;;13.90;70.20;;;;;;5057389;28;20029;-55
2021/11/14 10:42:56;;;;;;;14.57;5.47;;;13.90;70.40;;;;;;5059262;28;20396;-55
2021/11/14 10:45:22;;;;;;;15.75;5.68;;;13.90;70.20;;;;;;5059239;28;20021;-54
2021/11/14 10:47:57;;;;;;;13.52;5.50;;;13.90;70.20;;;;;;5059564;28;20028;-56
2021/11/14 10:50:26;;;;;;;12.40;5.72;;;14.00;70.40;;;;;;5059070;28;20040;-56
2021/11/14 10:52:57;;;;;;;22.52;10.48;;;14.10;70.50;;;;;;5059565;28;20108;-56
2021/11/14 10:55:25;;;;;;;17.50;9.05;;;14.10;70.20;;;;;;5059291;28;20055;-56
2021/11/14 10:57:50;;;;;;;15.43;6.57;;;14.20;70.30;;;;;;5059456;28;20017;-56
2021/11/14 11:00:18;;;;;;;17.02;6.32;;;14.20;70.00;;;;;;5059253;28;20076;-54
2021/11/14 11:02:46;;;;;;;15.02;6.72;;;14.30;70.10;;;;;;5059193;28;20068;-55
2021/11/14 11:05:19;;;;;;;17.92;6.43;;;14.30;69.90;;;;;;5058469;28;20044;-54
2021/11/14 11:08:00;;;;;;;13.80;5.57;;;14.40;70.10;;;;;;5059115;28;20044;-56
2021/11/14 11:10:33;;;;;;;13.25;5.82;;;14.40;70.00;;;;;;5059125;28;20033;-56
2021/11/14 11:13:04;;;;;;;14.55;6.47;;;14.50;70.00;;;;;;5059064;28;20082;-55
2021/11/14 11:15:50;;;;;;;14.68;7.45;;;14.50;69.80;;;;;;5059101;28;20381;-55
2021/11/14 11:18:18;;;;;;;14.85;7.45;;;14.60;69.80;;;;;;5059099;28;20024;-54
2021/11/14 11:20:46;;;;;;;15.63;6.30;;;14.60;69.50;;;;;;5058924;28;20218;-57
2021/11/14 11:23:15;;;;;;;13.07;5.80;;;14.60;69.50;;;;;;5058668;28;20068;-56
2021/11/14 11:25:42;;;;;;;13.80;5.75;;;14.70;69.60;;;;;;5058772;28;20056;-55
2021/11/14 11:28:25;;;;;;;17.02;6.30;;;14.70;69.40;;;;;;5058888;28;20033;-55
2021/11/14 11:30:53;;;;;;;14.13;6.32;;;14.70;69.50;;;;;;5058879;28;20075;-56
2021/11/14 11:33:21;;;;;;;13.13;6.10;;;14.80;69.60;;;;;;5058604;28;20120;-55
2021/11/14 11:35:51;;;;;;;16.85;9.57;;;14.80;68.90;;;;;;5058270;28;20040;-56
2021/11/14 11:38:19;;;;;;;18.98;8.85;;;14.80;69.00;;;;;;5058479;28;20045;-56
2021/11/14 11:40:45;;;;;;;16.05;7.07;;;14.80;69.20;;;;;;5058321;28;20074;-53
2021/11/14 11:43:11;;;;;;;13.13;6.30;;;14.90;69.10;;;;;;5072561;28;20024;-55
2021/11/14 11:45:41;;;;;;;16.60;7.07;;;15.00;68.90;;;;;;5078314;28;20104;-54
2021/11/14 11:48:23;;;;;;;18.65;9.00;;;15.10;69.20;;;;;;5078252;28;20024;-52
2021/11/14 11:50:50;;;;;;;18.77;11.30;;;15.20;68.60;;;;;;5078387;28;20061;-56
2021/11/14 11:53:26;;;;;;;20.92;11.65;;;15.30;68.60;;;;;;5078226;28;20028;-56
2021/11/14 11:56:12;;;;;;;14.07;7.05;;;15.40;68.50;;;;;;5076183;28;20027;-56
2021/11/14 11:58:44;;;;;;;14.35;7.22;;;15.50;68.50;;;;;;5077447;28;20017;-55
2021/11/14 12:01:28;;;;;;;16.95;9.32;;;15.70;68.00;;;;;;5076571;28;20484;-56
2021/11/14 12:04:13;;;;;;;40.22;31.33;;;15.80;66.90;;;;;;5076584;28;20025;-54
2021/11/14 12:07:02;;;;;;;23.08;14.07;;;16.00;66.70;;;;;;5076625;28;20043;-56
2021/11/14 12:09:42;;;;;;;35.25;24.80;;;16.20;68.10;;;;;;5066198;28;20433;-56
2021/11/14 12:12:43;;;;;;;29.30;19.77;;;16.60;68.10;;;;;;5076920;28;20033;-55
2021/11/14 12:15:16;;;;;;;17.08;9.95;;;17.00;68.10;;;;;;5075718;28;20036;-55
2021/11/14 12:17:58;;;;;;;18.65;10.30;;;17.40;65.10;;;;;;5076616;28;20036;-56
2021/11/14 12:20:28;;;;;;;14.13;8.38;;;17.60;66.70;;;;;;5077460;28;20032;-53
2021/11/14 12:22:58;;;;;;;13.02;7.82;;;17.80;66.50;;;;;;5077406;28;20031;-55
2021/11/14 12:25:36;;;;;;;17.02;8.85;;;17.80;65.90;;;;;;5077347;28;20052;-56
2021/11/14 12:28:07;;;;;;;14.25;6.53;;;17.60;65.00;;;;;;5077472;28;20080;-55
2021/11/14 12:30:42;;;;;;;16.35;9.93;;;17.50;65.20;;;;;;5077223;28;20024;-56
2021/11/14 12:33:18;;;;;;;15.13;9.30;;;17.40;65.90;;;;;;5077176;28;20066;-55
2021/11/14 12:35:47;;;;;;;12.27;6.60;;;17.30;65.20;;;;;;5077298;28;20030;-55
2021/11/14 12:38:21;;;;;;;10.07;5.45;;;17.30;65.70;;;;;;5076989;28;20153;-55
2021/11/14 12:40:47;;;;;;;;;;;17.20;64.70;;;;;;5077811;28;20021;-55